Time;durP1;ratioP1;P1;durP2;ratioP2;P2;SDS_P1;SDS_P2;PMS_P1;PMS_P2;Temp;Humidity;BMP_temperature;BMP_pressure;BME280_temperature;BME280_humidity;BME280_pressure;Samples;Min_cycle;Max_cycle;Signal;HPM_P1;HPM_P2
2023/02/22 00:00:45;;;;;;;0.10;0.10;;;6.70;99.90;;;;;;5026404;28;20219;-81
2023/02/22 00:03:26;;;;;;;0.10;0.10;;;6.70;99.90;;;;;;5020500;28;20670;-81
2023/02/22 00:05:56;;;;;;;0.10;0.10;;;6.80;99.90;;;;;;5026247;28;20214;-82
2023/02/22 00:08:24;;;;;;;0.10;0.10;;;6.80;99.90;;;;;;5022638;28;20523;-81
2023/02/22 00:10:51;;;;;;;0.10;0.10;;;6.80;99.90;;;;;;5023581;28;20285;-81
2023/02/22 00:13:18;;;;;;;0.10;0.10;;;6.80;99.90;;;;;;5025774;28;20207;-81
2023/02/22 00:15:44;;;;;;;0.10;0.10;;;6.80;99.90;;;;;;5026618;28;21270;-82
2023/02/22 00:18:13;;;;;;;0.10;0.10;;;6.80;99.90;;;;;;5022578;28;20186;-82
2023/02/22 00:20:39;;;;;;;0.10;0.10;;;6.70;99.90;;;;;;5023455;28;20228;-81
2023/02/22 00:23:07;;;;;;;0.10;0.10;;;6.70;99.90;;;;;;5021375;28;20288;-81
2023/02/22 00:25:33;;;;;;;0.10;0.10;;;6.70;99.90;;;;;;5025095;28;20244;-82
2023/02/22 00:28:00;;;;;;;0.10;0.10;;;6.70;99.90;;;;;;5024171;28;20300;-82
2023/02/22 00:30:28;;;;;;;0.10;0.10;;;6.70;99.90;;;;;;5022246;28;20185;-82
2023/02/22 00:32:55;;;;;;;0.10;0.10;;;6.60;99.90;;;;;;5024390;28;20213;-81
2023/02/22 00:35:26;;;;;;;0.10;0.10;;;6.40;99.90;;;;;;5022957;28;20284;-81
2023/02/22 00:37:54;;;;;;;0.10;0.10;;;6.40;99.90;;;;;;5041642;28;20181;-82
2023/02/22 00:40:23;;;;;;;0.10;0.10;;;6.40;99.90;;;;;;5025750;28;20217;-81
2023/02/22 00:42:49;;;;;;;0.10;0.10;;;6.40;99.90;;;;;;5025235;28;20237;-80
2023/02/22 00:45:17;;;;;;;0.10;0.10;;;6.40;99.90;;;;;;5024410;28;20615;-81
2023/02/22 00:47:42;;;;;;;0.10;0.10;;;6.40;99.90;;;;;;5026267;28;20189;-81
2023/02/22 00:50:08;;;;;;;0.10;0.10;;;6.40;99.90;;;;;;5020787;28;20543;-81
2023/02/22 00:52:35;;;;;;;0.10;0.10;;;6.40;99.90;;;;;;5020749;28;20188;-82
2023/02/22 00:55:01;;;;;;;0.10;0.10;;;6.40;99.90;;;;;;5023923;28;20592;-81
2023/02/22 00:57:27;;;;;;;0.10;0.10;;;6.40;99.90;;;;;;5025096;28;20203;-82
2023/02/22 00:59:52;;;;;;;0.10;0.10;;;6.50;99.90;;;;;;5018968;28;20213;-81
2023/02/22 01:02:18;;;;;;;0.10;0.10;;;6.40;99.90;;;;;;5025606;28;20294;-81
2023/02/22 01:04:44;;;;;;;0.10;0.10;;;6.40;99.90;;;;;;5022010;28;20268;-81
2023/02/22 01:07:10;;;;;;;0.10;0.10;;;6.40;99.90;;;;;;5022950;28;20232;-80
2023/02/22 01:09:36;;;;;;;0.10;0.10;;;6.40;99.90;;;;;;5022902;28;20205;-82
2023/02/22 01:12:02;;;;;;;0.10;0.10;;;6.20;99.90;;;;;;5020775;28;20209;-81
2023/02/22 01:14:27;;;;;;;0.10;0.10;;;6.20;99.90;;;;;;5018360;28;20214;-81
2023/02/22 01:16:54;;;;;;;0.10;0.10;;;6.20;99.90;;;;;;5018535;28;20321;-81
2023/02/22 01:19:21;;;;;;;0.10;0.10;;;6.20;99.90;;;;;;5023556;28;20186;-81
2023/02/22 01:21:48;;;;;;;0.10;0.10;;;6.20;99.90;;;;;;5024222;28;20186;-81
2023/02/22 01:24:15;;;;;;;0.10;0.10;;;6.20;99.90;;;;;;5023564;28;20240;-82
2023/02/22 01:26:49;;;;;;;0.10;0.10;;;6.30;99.90;;;;;;5021839;28;20202;-81
2023/02/22 01:29:17;;;;;;;0.10;0.10;;;6.30;99.90;;;;;;5022666;28;20192;-81
2023/02/22 01:31:50;;;;;;;0.10;0.10;;;6.30;99.90;;;;;;5021933;28;20198;-81
2023/02/22 01:34:17;;;;;;;0.10;0.10;;;6.30;99.90;;;;;;5024309;28;20294;-80
2023/02/22 01:36:42;;;;;;;0.10;0.10;;;6.20;99.90;;;;;;5022155;28;20244;-82
2023/02/22 01:39:09;;;;;;;0.10;0.10;;;6.20;99.90;;;;;;5023495;28;20190;-82
2023/02/22 01:41:35;;;;;;;0.00;0.00;;;6.20;99.90;;;;;;5023365;28;20234;-81
2023/02/22 01:44:18;;;;;;;0.10;0.10;;;6.20;99.90;;;;;;5021102;28;20200;-82
2023/02/22 01:46:43;;;;;;;0.00;0.00;;;6.00;99.90;;;;;;5022724;28;20212;-81
2023/02/22 01:49:10;;;;;;;0.07;0.07;;;6.00;99.90;;;;;;5022980;28;20192;-82
2023/02/22 01:51:39;;;;;;;0.10;0.10;;;6.00;99.90;;;;;;5020995;28;20216;-80
2023/02/22 01:54:12;;;;;;;0.10;0.10;;;6.00;99.90;;;;;;5018474;28;20355;-80
2023/02/22 01:56:41;;;;;;;0.10;0.10;;;6.00;99.90;;;;;;5022014;28;20205;-82
2023/02/22 01:59:09;;;;;;;0.00;0.00;;;6.00;99.90;;;;;;5022233;28;20240;-82
2023/02/22 02:01:37;;;;;;;0.00;0.00;;;6.10;99.90;;;;;;5020059;28;20199;-81
2023/02/22 02:04:08;;;;;;;0.00;0.00;;;6.10;99.90;;;;;;5017782;28;20937;-80
2023/02/22 02:06:35;;;;;;;0.10;0.10;;;6.20;99.90;;;;;;5019677;28;20236;-82
2023/02/22 02:09:09;;;;;;;0.00;0.00;;;6.20;99.90;;;;;;5021267;28;20212;-79
2023/02/22 02:11:35;;;;;;;0.03;0.03;;;6.20;99.90;;;;;;5021096;28;21073;-82
2023/02/22 02:14:01;;;;;;;0.10;0.10;;;6.20;99.90;;;;;;5019018;28;20207;-81
2023/02/22 02:16:35;;;;;;;0.10;0.10;;;6.20;99.90;;;;;;5021444;28;20220;-82
2023/02/22 02:19:02;;;;;;;0.10;0.10;;;6.10;99.90;;;;;;5019765;28;20246;-81
2023/02/22 02:21:51;;;;;;;0.10;0.10;;;6.10;99.90;;;;;;5021803;28;20178;-81
2023/02/22 02:24:32;;;;;;;0.10;0.10;;;6.10;99.90;;;;;;5016102;28;20235;-82
2023/02/22 02:27:15;;;;;;;0.00;0.00;;;6.00;99.90;;;;;;5020698;28;20252;-81
2023/02/22 02:30:11;;;;;;;0.10;0.10;;;6.00;99.90;;;;;;5017365;28;20714;-82
2023/02/22 02:32:57;;;;;;;0.10;0.10;;;6.00;99.90;;;;;;5021304;28;20184;-82
2023/02/22 02:35:42;;;;;;;0.10;0.10;;;6.00;99.90;;;;;;5021867;28;20208;-81
2023/02/22 02:38:27;;;;;;;0.10;0.10;;;6.00;99.90;;;;;;5021737;28;20268;-81
2023/02/22 02:41:16;;;;;;;0.10;0.10;;;6.00;99.90;;;;;;5014878;28;20684;-81
2023/02/22 02:43:50;;;;;;;0.10;0.10;;;5.90;99.90;;;;;;5023220;28;20305;-83
2023/02/22 02:46:47;;;;;;;0.00;0.00;;;5.70;99.90;;;;;;5020507;28;20183;-81
2023/02/22 02:49:18;;;;;;;0.10;0.10;;;5.70;99.90;;;;;;5022407;28;20192;-82
2023/02/22 02:51:49;;;;;;;0.10;0.10;;;5.70;99.90;;;;;;5022371;28;20217;-81
2023/02/22 02:54:15;;;;;;;0.10;0.10;;;5.70;99.90;;;;;;5022184;28;20204;-83
2023/02/22 02:56:41;;;;;;;0.10;0.10;;;5.70;99.90;;;;;;5020796;28;20374;-82
2023/02/22 02:59:28;;;;;;;0.00;0.00;;;5.70;99.90;;;;;;5023245;28;20274;-80
2023/02/22 03:02:05;;;;;;;0.10;0.10;;;5.80;99.90;;;;;;5016858;28;20189;-81
2023/02/22 03:04:40;;;;;;;0.10;0.10;;;5.80;99.90;;;;;;5022457;28;20215;-80
2023/02/22 03:07:18;;;;;;;0.00;0.00;;;5.80;99.90;;;;;;5021232;28;20296;-82
2023/02/22 03:09:49;;;;;;;0.10;0.10;;;5.90;99.90;;;;;;5019993;28;20292;-82
2023/02/22 03:12:43;;;;;;;0.10;0.10;;;5.90;99.90;;;;;;5014353;28;20185;-81
2023/02/22 03:15:21;;;;;;;0.00;0.00;;;6.00;99.90;;;;;;5019305;28;20271;-83
2023/02/22 03:18:05;;;;;;;0.00;0.00;;;6.00;99.90;;;;;;5019077;28;20272;-81
2023/02/22 03:20:42;;;;;;;0.07;0.07;;;5.90;99.90;;;;;;5013888;28;20196;-82
2023/02/22 03:23:24;;;;;;;0.10;0.10;;;5.90;99.90;;;;;;5019769;28;20299;-81
2023/02/22 03:25:56;;;;;;;0.10;0.10;;;5.90;99.90;;;;;;5022325;28;20171;-81
2023/02/22 03:28:25;;;;;;;0.00;0.00;;;5.80;99.90;;;;;;5021839;28;20208;-81
2023/02/22 03:31:03;;;;;;;0.10;0.10;;;5.80;99.90;;;;;;5016156;28;20188;-81
2023/02/22 03:33:39;;;;;;;0.10;0.10;;;5.80;99.90;;;;;;5018139;28;21483;-82
2023/02/22 03:36:20;;;;;;;0.10;0.10;;;5.80;99.90;;;;;;5020371;28;20302;-81
2023/02/22 03:38:48;;;;;;;0.10;0.10;;;5.80;99.90;;;;;;5017781;28;20264;-82
2023/02/22 03:41:17;;;;;;;0.00;0.00;;;5.70;99.90;;;;;;5020937;28;20195;-82
2023/02/22 03:43:47;;;;;;;0.10;0.10;;;5.70;99.90;;;;;;5014995;28;20213;-81
2023/02/22 03:46:14;;;;;;;0.10;0.10;;;5.70;99.90;;;;;;5018959;28;20199;-82
2023/02/22 03:48:50;;;;;;;0.10;0.10;;;5.70;99.90;;;;;;5024336;28;20204;-82
2023/02/22 03:51:16;;;;;;;0.10;0.10;;;5.70;99.90;;;;;;5023437;28;20596;-82
2023/02/22 03:53:43;;;;;;;0.10;0.10;;;5.70;99.90;;;;;;5026237;28;20264;-82
2023/02/22 03:56:12;;;;;;;0.10;0.10;;;5.70;99.90;;;;;;5021287;28;20227;-81
2023/02/22 03:58:42;;;;;;;0.10;0.10;;;5.70;99.90;;;;;;5021502;28;20187;-82
2023/02/22 04:01:09;;;;;;;0.10;0.10;;;5.70;99.90;;;;;;5022679;28;20212;-82
2023/02/22 04:03:34;;;;;;;0.10;0.10;;;5.60;99.90;;;;;;5024293;28;20232;-80
2023/02/22 04:05:59;;;;;;;0.10;0.10;;;5.60;99.90;;;;;;5019152;28;20190;-82
2023/02/22 04:08:25;;;;;;;0.10;0.10;;;5.60;99.90;;;;;;5016918;28;20200;-82
2023/02/22 04:10:51;;;;;;;0.10;0.10;;;5.50;99.90;;;;;;5020504;28;20188;-81
2023/02/22 04:13:16;;;;;;;0.10;0.10;;;5.50;99.90;;;;;;5022338;28;21238;-81
2023/02/22 04:15:42;;;;;;;0.10;0.10;;;5.50;99.90;;;;;;5024336;28;20272;-82
2023/02/22 04:18:07;;;;;;;0.00;0.00;;;5.50;99.90;;;;;;5024051;28;20235;-82
2023/02/22 04:20:33;;;;;;;0.00;0.00;;;5.50;99.90;;;;;;5021383;28;20671;-81
2023/02/22 04:22:59;;;;;;;0.10;0.10;;;5.40;99.90;;;;;;5025440;28;20262;-82
2023/02/22 04:25:25;;;;;;;0.07;0.07;;;5.40;99.90;;;;;;5023581;28;20183;-80
2023/02/22 04:27:51;;;;;;;0.10;0.10;;;5.30;99.90;;;;;;5024120;28;20688;-81
2023/02/22 04:30:18;;;;;;;0.00;0.00;;;5.20;99.90;;;;;;5021740;28;20257;-80
2023/02/22 04:32:43;;;;;;;0.10;0.10;;;5.20;99.90;;;;;;5017656;28;20184;-81
2023/02/22 04:35:09;;;;;;;0.10;0.10;;;5.20;99.90;;;;;;5021966;28;20632;-82
2023/02/22 04:37:35;;;;;;;0.10;0.10;;;5.20;99.90;;;;;;5022030;28;20184;-82
2023/02/22 04:40:02;;;;;;;0.10;0.10;;;5.10;99.90;;;;;;5021023;28;20190;-81
2023/02/22 04:42:28;;;;;;;0.00;0.00;;;5.10;99.90;;;;;;5022618;28;20221;-81
2023/02/22 04:44:53;;;;;;;0.00;0.00;;;5.10;99.90;;;;;;5021108;28;20212;-80
2023/02/22 04:47:19;;;;;;;0.00;0.00;;;5.10;99.90;;;;;;5023881;28;20534;-82
2023/02/22 04:49:44;;;;;;;0.00;0.00;;;5.10;99.90;;;;;;5019918;28;20191;-81
2023/02/22 04:52:10;;;;;;;0.10;0.10;;;5.20;99.90;;;;;;5020131;28;20271;-82
2023/02/22 04:54:36;;;;;;;0.10;0.10;;;5.10;99.90;;;;;;5019646;28;20265;-82
2023/02/22 04:57:02;;;;;;;0.10;0.10;;;5.10;99.90;;;;;;5026093;28;20245;-82
2023/02/22 04:59:28;;;;;;;0.10;0.10;;;5.10;99.90;;;;;;5021621;28;20188;-82
2023/02/22 05:01:54;;;;;;;0.10;0.10;;;5.10;99.90;;;;;;5022821;28;20184;-81
2023/02/22 05:04:20;;;;;;;0.00;0.00;;;5.10;99.90;;;;;;5018069;28;20299;-82
2023/02/22 05:06:46;;;;;;;0.10;0.10;;;5.00;99.90;;;;;;5019561;28;20193;-82
2023/02/22 05:09:12;;;;;;;0.10;0.10;;;5.00;99.90;;;;;;5024300;28;20226;-81
2023/02/22 05:11:38;;;;;;;0.10;0.10;;;5.00;99.90;;;;;;5021553;28;20747;-81
2023/02/22 05:14:03;;;;;;;0.10;0.10;;;5.00;99.90;;;;;;5021681;28;20615;-82
2023/02/22 05:16:29;;;;;;;0.10;0.10;;;5.00;99.90;;;;;;5021542;28;20226;-81
2023/02/22 05:18:55;;;;;;;0.00;0.00;;;4.90;99.90;;;;;;5025314;28;20191;-81
2023/02/22 05:21:20;;;;;;;0.00;0.00;;;4.90;99.90;;;;;;5023380;28;20203;-80
2023/02/22 05:23:46;;;;;;;0.10;0.10;;;4.90;99.90;;;;;;5019983;28;20325;-82
2023/02/22 05:26:12;;;;;;;0.10;0.10;;;4.80;99.90;;;;;;5017578;28;20194;-81
2023/02/22 05:28:37;;;;;;;0.10;0.10;;;4.80;99.90;;;;;;5022798;28;20811;-81
2023/02/22 05:31:03;;;;;;;0.00;0.00;;;4.70;99.90;;;;;;5023467;28;20188;-81
2023/02/22 05:33:28;;;;;;;0.00;0.00;;;4.70;99.90;;;;;;5039268;28;20313;-81
2023/02/22 05:35:54;;;;;;;0.00;0.00;;;4.70;99.90;;;;;;5023868;28;20948;-81
2023/02/22 05:38:21;;;;;;;0.00;0.00;;;4.70;99.90;;;;;;5022355;28;21229;-81
2023/02/22 05:40:47;;;;;;;0.10;0.10;;;4.60;99.90;;;;;;5021703;28;20220;-81
2023/02/22 05:43:14;;;;;;;0.00;0.00;;;4.60;99.90;;;;;;5022385;28;20237;-82
2023/02/22 05:45:40;;;;;;;0.00;0.00;;;4.60;99.90;;;;;;5020511;28;20305;-81
2023/02/22 05:48:06;;;;;;;0.10;0.10;;;4.60;99.90;;;;;;5016200;28;20187;-82
2023/02/22 05:50:32;;;;;;;0.10;0.10;;;4.60;99.90;;;;;;5020904;28;20234;-81
2023/02/22 05:52:58;;;;;;;0.10;0.10;;;4.60;99.90;;;;;;5022713;28;20210;-80
2023/02/22 05:55:24;;;;;;;0.03;0.03;;;4.70;99.90;;;;;;5021728;28;20284;-82
2023/02/22 05:57:50;;;;;;;0.10;0.10;;;4.70;99.90;;;;;;5022488;28;20183;-81
2023/02/22 06:00:23;;;;;;;0.10;0.10;;;4.70;99.90;;;;;;5023039;28;20244;-81
2023/02/22 06:02:59;;;;;;;0.10;0.10;;;4.70;99.90;;;;;;5022757;28;20214;-82
2023/02/22 06:05:25;;;;;;;0.10;0.10;;;4.70;99.90;;;;;;5017583;28;20188;-81
2023/02/22 06:07:51;;;;;;;0.10;0.10;;;4.70;99.90;;;;;;5020463;28;20192;-82
2023/02/22 06:10:17;;;;;;;0.10;0.10;;;4.70;99.90;;;;;;5022422;28;20195;-81
2023/02/22 06:12:43;;;;;;;0.10;0.10;;;4.70;99.90;;;;;;5023139;28;20301;-81
2023/02/22 06:15:09;;;;;;;0.10;0.10;;;4.80;99.90;;;;;;5019004;28;20192;-80
2023/02/22 06:17:35;;;;;;;0.10;0.10;;;4.70;99.90;;;;;;5023679;28;20908;-82
2023/02/22 06:20:01;;;;;;;0.00;0.00;;;4.70;99.90;;;;;;5022067;28;21005;-82
2023/02/22 06:22:26;;;;;;;0.00;0.00;;;4.80;99.90;;;;;;5021602;28;20277;-81
2023/02/22 06:24:52;;;;;;;0.00;0.00;;;4.80;99.90;;;;;;5020670;28;20202;-81
2023/02/22 06:27:17;;;;;;;0.00;0.00;;;4.80;99.90;;;;;;5016516;28;20206;-80
2023/02/22 06:29:45;;;;;;;0.10;0.10;;;4.70;99.90;;;;;;5021412;28;20182;-80
2023/02/22 06:32:11;;;;;;;0.10;0.10;;;4.70;99.90;;;;;;5022921;28;20271;-82
2023/02/22 06:34:37;;;;;;;0.10;0.10;;;4.70;99.90;;;;;;5018511;28;20215;-81
2023/02/22 06:37:03;;;;;;;0.00;0.00;;;4.70;99.90;;;;;;5021037;28;20835;-81
2023/02/22 06:39:28;;;;;;;0.00;0.00;;;4.60;99.90;;;;;;5023001;28;20192;-81
2023/02/22 06:41:55;;;;;;;0.00;0.00;;;4.60;99.90;;;;;;5020888;28;20194;-81
2023/02/22 06:44:20;;;;;;;0.10;0.10;;;4.50;99.90;;;;;;5022882;28;20237;-82
2023/02/22 06:46:49;;;;;;;0.00;0.00;;;4.50;99.90;;;;;;5021999;28;20214;-81
2023/02/22 06:49:15;;;;;;;0.10;0.10;;;4.40;99.90;;;;;;5021280;28;20260;-80
2023/02/22 06:51:41;;;;;;;0.00;0.00;;;4.30;99.90;;;;;;5019075;28;20655;-82
2023/02/22 06:54:07;;;;;;;58.33;25.47;;;4.20;99.90;;;;;;5020530;28;20214;-82
2023/02/22 06:56:32;;;;;;;0.00;0.00;;;4.10;99.90;;;;;;5019189;28;20263;-81
2023/02/22 06:58:58;;;;;;;0.00;0.00;;;4.00;99.90;;;;;;5018741;28;20194;-81
2023/02/22 07:01:23;;;;;;;0.00;0.00;;;4.00;99.90;;;;;;5016161;28;20585;-83
2023/02/22 07:03:49;;;;;;;0.00;0.00;;;3.90;99.90;;;;;;5019695;28;20210;-83
2023/02/22 07:06:14;;;;;;;0.10;0.10;;;3.90;99.90;;;;;;5018535;28;20239;-80
2023/02/22 07:08:40;;;;;;;0.10;0.10;;;3.80;99.90;;;;;;5021926;28;20186;-80
2023/02/22 07:11:05;;;;;;;0.10;0.10;;;3.80;99.90;;;;;;5022866;28;20902;-81
2023/02/22 07:13:31;;;;;;;0.10;0.10;;;3.70;99.90;;;;;;5015897;28;20477;-80
2023/02/22 07:15:57;;;;;;;0.10;0.10;;;3.70;99.90;;;;;;5017359;28;20233;-81
2023/02/22 07:18:23;;;;;;;0.00;0.00;;;3.70;99.90;;;;;;5021052;28;20182;-80
2023/02/22 07:20:49;;;;;;;0.00;0.00;;;3.70;99.90;;;;;;5023355;28;21257;-82
2023/02/22 07:23:15;;;;;;;0.10;0.10;;;3.70;99.90;;;;;;5023447;28;20210;-81
2023/02/22 07:25:42;;;;;;;0.10;0.10;;;3.70;99.90;;;;;;5021723;28;20209;-81
2023/02/22 07:28:09;;;;;;;0.10;0.10;;;3.80;99.90;;;;;;5021404;28;20252;-82
2023/02/22 07:30:35;;;;;;;0.10;0.10;;;3.90;99.90;;;;;;5027156;28;20235;-82
2023/02/22 07:33:04;;;;;;;0.10;0.10;;;4.00;99.90;;;;;;5023956;28;20300;-82
2023/02/22 07:35:32;;;;;;;0.10;0.10;;;4.00;99.90;;;;;;5027310;28;20577;-84
2023/02/22 07:37:58;;;;;;;0.10;0.10;;;4.10;99.90;;;;;;5024563;28;20201;-82
2023/02/22 07:40:25;;;;;;;0.10;0.10;;;4.20;99.90;;;;;;5021973;28;20186;-82
2023/02/22 07:42:51;;;;;;;0.00;0.00;;;4.30;99.90;;;;;;5026441;28;20701;-82
2023/02/22 07:45:17;;;;;;;0.10;0.10;;;4.40;99.90;;;;;;5019085;28;20190;-82
2023/02/22 07:47:44;;;;;;;0.00;0.00;;;4.40;99.90;;;;;;5019586;28;20218;-82
2023/02/22 07:50:11;;;;;;;0.10;0.10;;;4.50;99.90;;;;;;5022585;28;20187;-84
2023/02/22 07:52:39;;;;;;;0.10;0.10;;;4.60;99.90;;;;;;5022984;28;20190;-82
2023/02/22 07:55:05;;;;;;;0.00;0.00;;;4.80;99.90;;;;;;5026119;28;20257;-82
2023/02/22 07:57:32;;;;;;;0.10;0.10;;;4.90;99.90;;;;;;5025201;28;20182;-82
2023/02/22 07:59:57;;;;;;;0.10;0.10;;;5.10;99.90;;;;;;5042332;28;20195;-83
2023/02/22 08:02:25;;;;;;;0.00;0.00;;;5.30;99.90;;;;;;5024061;28;20185;-82
2023/02/22 08:04:51;;;;;;;0.00;0.00;;;5.10;99.90;;;;;;5024957;28;20206;-83
2023/02/22 08:07:16;;;;;;;0.10;0.10;;;5.00;99.90;;;;;;5024197;28;20686;-82
2023/02/22 08:09:42;;;;;;;0.10;0.10;;;5.10;99.90;;;;;;5007778;28;20194;-83
2023/02/22 08:12:12;;;;;;;0.10;0.10;;;5.20;99.90;;;;;;5019055;28;20282;-84
2023/02/22 08:14:38;;;;;;;0.10;0.10;;;5.30;99.90;;;;;;5027039;28;20294;-82
2023/02/22 08:17:05;;;;;;;0.10;0.10;;;5.50;99.90;;;;;;5023095;28;20215;-82
2023/02/22 08:19:30;;;;;;;0.10;0.10;;;5.70;99.90;;;;;;5025263;28;20194;-85
2023/02/22 08:21:56;;;;;;;0.10;0.10;;;5.90;99.90;;;;;;5025149;28;20200;-83
2023/02/22 08:24:21;;;;;;;0.10;0.10;;;6.20;99.90;;;;;;5021132;28;20271;-82
2023/02/22 08:26:47;;;;;;;0.10;0.10;;;6.50;99.90;;;;;;5021758;28;20184;-84
2023/02/22 08:29:13;;;;;;;0.10;0.10;;;6.80;99.90;;;;;;5026729;28;20187;-82
2023/02/22 08:31:39;;;;;;;0.10;0.10;;;7.10;99.90;;;;;;5021600;28;20193;-82
2023/02/22 08:34:05;;;;;;;0.10;0.10;;;7.20;99.90;;;;;;5023665;28;20209;-82
2023/02/22 08:36:31;;;;;;;0.10;0.10;;;7.10;99.90;;;;;;5023159;28;20217;-82
2023/02/22 08:38:57;;;;;;;0.00;0.00;;;7.20;99.90;;;;;;5020128;28;20224;-83
2023/02/22 08:41:23;;;;;;;0.10;0.10;;;7.00;99.90;;;;;;5023842;28;20193;-82
2023/02/22 08:43:48;;;;;;;0.03;0.03;;;6.90;99.90;;;;;;5024394;28;20210;-83
2023/02/22 08:46:16;;;;;;;0.10;0.10;;;7.20;99.90;;;;;;5021629;28;20280;-83
2023/02/22 08:48:51;;;;;;;0.10;0.10;;;7.60;99.90;;;;;;5022945;28;20189;-82
2023/02/22 08:51:18;;;;;;;0.10;0.10;;;7.80;99.90;;;;;;5020151;28;20197;-83
2023/02/22 08:53:43;;;;;;;0.10;0.10;;;8.00;99.90;;;;;;5024634;28;20211;-82
2023/02/22 08:56:10;;;;;;;0.10;0.10;;;8.20;99.90;;;;;;5024814;28;20205;-83
2023/02/22 08:58:35;;;;;;;0.00;0.00;;;8.40;99.90;;;;;;5021659;28;20192;-82
2023/02/22 09:01:02;;;;;;;0.10;0.10;;;8.70;99.90;;;;;;5025690;28;20205;-82
2023/02/22 09:03:28;;;;;;;0.10;0.10;;;8.90;99.90;;;;;;5017897;28;20264;-82
2023/02/22 09:05:53;;;;;;;0.10;0.10;;;9.10;99.90;;;;;;5016074;28;20193;-83
2023/02/22 09:08:19;;;;;;;0.10;0.10;;;9.30;99.90;;;;;;5020676;28;20191;-82
2023/02/22 09:10:45;;;;;;;0.10;0.10;;;9.40;99.90;;;;;;5019121;28;20186;-82
2023/02/22 09:13:11;;;;;;;0.03;0.03;;;9.60;99.90;;;;;;5017388;28;20212;-81
2023/02/22 09:15:38;;;;;;;0.10;0.10;;;9.70;99.90;;;;;;5018453;28;20259;-82
2023/02/22 09:18:09;;;;;;;0.10;0.10;;;9.80;99.90;;;;;;5010090;28;20187;-81
2023/02/22 09:20:35;;;;;;;0.10;0.10;;;10.00;99.90;;;;;;5016554;28;20297;-81
2023/02/22 09:23:03;;;;;;;0.10;0.10;;;10.10;99.90;;;;;;5013614;28;20683;-81
2023/02/22 09:25:28;;;;;;;0.10;0.10;;;10.10;99.90;;;;;;5016827;28;20185;-81
2023/02/22 09:27:55;;;;;;;0.10;0.10;;;10.10;99.90;;;;;;5015832;28;20183;-82
2023/02/22 09:30:30;;;;;;;0.10;0.10;;;10.00;99.90;;;;;;5017573;28;20698;-81
2023/02/22 09:33:04;;;;;;;0.07;0.07;;;10.00;99.90;;;;;;5017832;28;20228;-81
2023/02/22 09:35:30;;;;;;;0.10;0.10;;;10.10;99.90;;;;;;5017885;28;20273;-82
2023/02/22 09:37:57;;;;;;;0.10;0.10;;;10.00;99.90;;;;;;5016902;28;20187;-81
2023/02/22 09:40:28;;;;;;;0.10;0.10;;;10.10;99.90;;;;;;5021208;28;21503;-82
2023/02/22 09:43:31;;;;;;;0.10;0.10;;;10.30;99.90;;;;;;5015507;28;20244;-81
2023/02/22 09:46:37;;;;;;;0.10;0.10;;;10.20;99.90;;;;;;5019666;28;20189;-82
2023/02/22 09:49:14;;;;;;;0.10;0.10;;;10.30;99.90;;;;;;5020075;28;20675;-81
2023/02/22 09:51:48;;;;;;;0.10;0.10;;;10.20;99.90;;;;;;5017949;28;20273;-81
2023/02/22 09:54:22;;;;;;;0.10;0.10;;;10.30;99.90;;;;;;5016057;28;20295;-82
2023/02/22 09:56:51;;;;;;;0.10;0.10;;;10.20;99.90;;;;;;5019949;28;20212;-82
2023/02/22 09:59:23;;;;;;;0.10;0.10;;;10.30;99.90;;;;;;5015720;28;20219;-82
2023/02/22 10:01:57;;;;;;;0.10;0.10;;;10.30;99.90;;;;;;5017001;28;20665;-83
2023/02/22 10:04:35;;;;;;;0.10;0.10;;;10.40;99.90;;;;;;5019499;28;20205;-82
2023/02/22 10:07:12;;;;;;;0.10;0.10;;;10.50;99.90;;;;;;5021871;28;20180;-81
2023/02/22 10:09:42;;;;;;;0.10;0.10;;;10.60;99.90;;;;;;5019490;28;20273;-83
2023/02/22 10:12:30;;;;;;;0.10;0.10;;;10.60;99.90;;;;;;5018794;28;20271;-84
2023/02/22 10:15:05;;;;;;;0.10;0.10;;;10.60;99.90;;;;;;5023557;28;20202;-81
2023/02/22 10:18:16;;;;;;;0.00;0.00;;;10.70;99.90;;;;;;5021020;28;20232;-82
2023/02/22 10:20:54;;;;;;;0.10;0.10;;;10.90;99.90;;;;;;5021067;28;20174;-82
2023/02/22 10:23:27;;;;;;;0.10;0.10;;;11.10;99.90;;;;;;5021563;28;20764;-81
2023/02/22 10:26:00;;;;;;;0.10;0.10;;;11.20;99.90;;;;;;5022493;28;20251;-83
2023/02/22 10:28:37;;;;;;;0.10;0.10;;;11.20;99.90;;;;;;5018921;28;20245;-81
2023/02/22 10:31:06;;;;;;;0.10;0.10;;;11.20;99.90;;;;;;5019348;28;20240;-81
2023/02/22 10:33:46;;;;;;;0.00;0.00;;;11.40;99.90;;;;;;5019263;28;20228;-82
2023/02/22 10:36:19;;;;;;;0.10;0.10;;;10.80;99.90;;;;;;5020791;28;20210;-82
2023/02/22 10:38:55;;;;;;;0.10;0.10;;;10.40;99.90;;;;;;5024924;28;20986;-82
2023/02/22 10:41:30;;;;;;;0.10;0.10;;;10.40;99.90;;;;;;5022201;28;20221;-82
2023/02/22 10:43:56;;;;;;;7.67;3.50;;;10.70;99.90;;;;;;5018487;28;20607;-82
2023/02/22 10:46:23;;;;;;;0.10;0.10;;;10.90;99.90;;;;;;5013844;28;20206;-81
2023/02/22 10:48:55;;;;;;;0.10;0.10;;;10.90;99.90;;;;;;5019072;28;20182;-82
2023/02/22 10:51:21;;;;;;;0.10;0.10;;;11.00;99.90;;;;;;5020589;28;20201;-81
2023/02/22 10:54:13;;;;;;;0.10;0.10;;;10.40;99.90;;;;;;5014482;28;20245;-80
2023/02/22 10:56:57;;;;;;;0.10;0.10;;;11.00;99.90;;;;;;5019522;28;20301;-81
2023/02/22 10:59:37;;;;;;;0.10;0.10;;;11.10;99.90;;;;;;5020724;28;20174;-83
2023/02/22 11:02:18;;;;;;;0.10;0.10;;;11.00;99.90;;;;;;5019802;28;20276;-81
2023/02/22 11:04:50;;;;;;;0.10;0.10;;;10.00;99.90;;;;;;5022287;28;20296;-82
2023/02/22 11:07:31;;;;;;;0.10;0.10;;;9.60;99.90;;;;;;5017586;28;20588;-83
2023/02/22 11:10:03;;;;;;;0.10;0.10;;;10.30;99.90;;;;;;5018908;28;20193;-80
2023/02/22 11:12:38;;;;;;;0.27;0.27;;;10.60;99.90;;;;;;5017788;28;20211;-81
2023/02/22 11:15:16;;;;;;;0.10;0.10;;;11.00;99.90;;;;;;5018482;28;20256;-82
2023/02/22 11:17:43;;;;;;;0.10;0.10;;;11.00;99.90;;;;;;5014976;28;20186;-80
2023/02/22 11:20:24;;;;;;;0.10;0.10;;;11.30;99.90;;;;;;5019208;28;20196;-81
2023/02/22 11:22:53;;;;;;;0.10;0.10;;;11.60;99.90;;;;;;5015369;28;20206;-81
2023/02/22 11:25:23;;;;;;;0.10;0.10;;;11.50;99.90;;;;;;5019422;28;20185;-81
2023/02/22 11:27:50;;;;;;;0.00;0.00;;;11.30;99.90;;;;;;5018073;28;20203;-81
2023/02/22 11:30:29;;;;;;;0.10;0.10;;;11.10;99.90;;;;;;5018767;28;20187;-80
2023/02/22 11:33:22;;;;;;;0.10;0.10;;;11.10;99.90;;;;;;5017439;28;20206;-81
2023/02/22 11:35:56;;;;;;;0.10;0.10;;;11.40;99.90;;;;;;5014774;28;20332;-80
2023/02/22 11:38:28;;;;;;;0.10;0.10;;;11.70;99.90;;;;;;5019347;28;20166;-81
2023/02/22 11:41:14;;;;;;;0.03;0.03;;;11.90;99.90;;;;;;5015692;28;20190;-81
2023/02/22 11:43:45;;;;;;;0.10;0.10;;;12.10;99.90;;;;;;5018018;28;20263;-81
2023/02/22 11:46:13;;;;;;;0.10;0.10;;;12.20;99.90;;;;;;5020567;28;20295;-81
2023/02/22 11:48:54;;;;;;;0.10;0.10;;;12.20;99.90;;;;;;5018323;28;20302;-81
2023/02/22 11:51:38;;;;;;;0.10;0.10;;;12.50;99.90;;;;;;5017696;28;20182;-82
2023/02/22 11:54:27;;;;;;;0.10;0.10;;;12.70;99.90;;;;;;5009832;28;20207;-81
2023/02/22 11:57:00;;;;;;;0.10;0.10;;;12.80;99.90;;;;;;5020440;28;20265;-81
2023/02/22 12:00:01;;;;;;;0.10;0.10;;;12.00;99.90;;;;;;5020671;28;20198;-82
2023/02/22 12:02:55;;;;;;;0.10;0.10;;;12.20;99.90;;;;;;5018855;28;20277;-81
2023/02/22 12:06:00;;;;;;;0.10;0.10;;;11.70;99.90;;;;;;5017402;28;20194;-80
2023/02/22 12:08:43;;;;;;;0.00;0.00;;;11.80;99.90;;;;;;5022572;28;20260;-82
2023/02/22 12:11:30;;;;;;;0.10;0.10;;;11.50;99.90;;;;;;5039662;28;20183;-80
2023/02/22 12:14:25;;;;;;;0.07;0.07;;;11.30;99.90;;;;;;5018818;28;21154;-82
2023/02/22 12:17:09;;;;;;;0.10;0.10;;;11.30;99.90;;;;;;5021230;28;20206;-83
2023/02/22 12:19:46;;;;;;;0.10;0.10;;;11.70;99.90;;;;;;5022125;28;20183;-81
2023/02/22 12:22:29;;;;;;;0.10;0.10;;;12.20;99.90;;;;;;5023056;28;20188;-81
2023/02/22 12:25:16;;;;;;;0.10;0.10;;;12.70;99.90;;;;;;5018135;28;20276;-81
2023/02/22 12:27:52;;;;;;;0.10;0.10;;;12.60;99.90;;;;;;5023330;28;20730;-84
2023/02/22 12:30:32;;;;;;;0.10;0.10;;;12.60;99.90;;;;;;5023687;28;20296;-82
2023/02/22 12:33:03;;;;;;;0.10;0.10;;;12.80;99.90;;;;;;5022803;28;20264;-81
2023/02/22 12:35:35;;;;;;;0.10;0.10;;;12.80;99.90;;;;;;5022786;28;20281;-81
2023/02/22 12:38:13;;;;;;;0.10;0.10;;;13.50;99.90;;;;;;5016597;28;20325;-82
2023/02/22 12:40:48;;;;;;;0.10;0.10;;;12.70;99.90;;;;;;5024312;28;20218;-81
2023/02/22 12:43:19;;;;;;;0.10;0.10;;;12.50;99.90;;;;;;5022124;28;20197;-82
2023/02/22 12:45:50;;;;;;;0.10;0.10;;;12.50;99.90;;;;;;5022026;28;20201;-83
2023/02/22 12:48:43;;;;;;;0.10;0.10;;;13.40;99.90;;;;;;5025973;28;20588;-81
2023/02/22 12:51:40;;;;;;;0.10;0.10;;;13.30;99.90;;;;;;5020029;28;20189;-82
2023/02/22 12:54:21;;;;;;;0.10;0.10;;;14.10;99.90;;;;;;5023625;28;20269;-82
2023/02/22 12:57:08;;;;;;;0.10;0.10;;;14.60;99.90;;;;;;5025149;28;20213;-82
2023/02/22 12:59:48;;;;;;;0.10;0.10;;;14.90;99.90;;;;;;5021932;28;20170;-82
2023/02/22 13:02:21;;;;;;;0.10;0.10;;;15.00;99.90;;;;;;5022671;28;20719;-82
2023/02/22 13:04:47;;;;;;;0.10;0.10;;;14.80;99.90;;;;;;5024447;28;20292;-82
2023/02/22 13:07:12;;;;;;;0.10;0.10;;;14.50;99.90;;;;;;5021088;28;20186;-82
2023/02/22 13:09:58;;;;;;;0.10;0.10;;;13.10;99.90;;;;;;5024445;28;20188;-81
2023/02/22 13:13:02;;;;;;;0.10;0.10;;;13.10;99.90;;;;;;5020195;28;20549;-82